createdAt,value
2018-09-03T00:02:27.915Z,100169.00
2018-09-03T00:05:00.099Z,100162.00
2018-09-03T00:07:29.745Z,100155.00
2018-09-03T00:09:59.452Z,100152.00
2018-09-03T00:12:29.131Z,100151.00
2018-09-03T00:14:59.192Z,100145.00
2018-09-03T00:17:32.216Z,100146.00
2018-09-03T00:20:01.414Z,100142.00
2018-09-03T00:22:32.187Z,100141.00
2018-09-03T00:25:04.804Z,100139.00
2018-09-03T00:27:36.547Z,100131.00
2018-09-03T00:30:06.335Z,100135.00
2018-09-03T00:32:41.906Z,100129.00
2018-09-03T00:35:17.534Z,100129.00
2018-09-03T00:37:53.474Z,100124.00
2018-09-03T00:40:28.616Z,100125.00
2018-09-03T00:43:07.536Z,100124.00
2018-09-03T00:45:43.306Z,100127.00
2018-09-03T00:48:13.244Z,100116.00
2018-09-03T00:50:42.936Z,100115.00
2018-09-03T00:53:14.482Z,100109.00
2018-09-03T00:55:44.404Z,100100.00
2018-09-03T00:58:14.419Z,100104.00
2018-09-03T01:00:44.116Z,100105.00
2018-09-03T01:03:15.503Z,100102.00
2018-09-03T01:05:46.439Z,100097.00
2018-09-03T01:08:16.943Z,100105.00
2018-09-03T01:10:50.671Z,100102.00
2018-09-03T01:13:20.568Z,100112.00
2018-09-03T01:15:49.961Z,100113.00
2018-09-03T01:18:19.481Z,100110.00
2018-09-03T01:20:50.269Z,100107.00
2018-09-03T01:23:19.944Z,100104.00
2018-09-03T01:25:53.469Z,100098.00
2018-09-03T01:28:22.614Z,100096.00
2018-09-03T01:30:54.302Z,100097.00
2018-09-03T01:33:24.207Z,100097.00
2018-09-03T01:35:55.022Z,100092.00
2018-09-03T01:38:25.384Z,100095.00
2018-09-03T01:40:57.212Z,100096.00
2018-09-03T01:43:26.679Z,100093.00
2018-09-03T01:45:55.884Z,100094.00
2018-09-03T01:48:25.868Z,100100.00
2018-09-03T01:50:55.076Z,100098.00
2018-09-03T01:53:24.321Z,100099.00
2018-09-03T01:55:53.700Z,100102.00
2018-09-03T01:58:25.598Z,100100.00
2018-09-03T02:00:55.380Z,100099.00
2018-09-03T02:03:25.388Z,100094.00
2018-09-03T02:05:54.981Z,100092.00
2018-09-03T02:08:24.593Z,100092.00
2018-09-03T02:10:53.890Z,100096.00
2018-09-03T02:13:23.652Z,100100.00
2018-09-03T02:15:52.738Z,100114.00
2018-09-03T02:18:24.223Z,100122.00
2018-09-03T02:20:55.433Z,100127.00
2018-09-03T02:23:26.550Z,100131.00
2018-09-03T02:25:57.810Z,100127.00
2018-09-03T02:28:27.187Z,100130.00
2018-09-03T02:30:56.798Z,100131.00
2018-09-03T02:33:28.609Z,100128.00
2018-09-03T02:35:57.925Z,100133.00
2018-09-03T02:38:27.759Z,100141.00
2018-09-03T02:40:57.160Z,100136.00
2018-09-03T02:43:27.385Z,100131.00
2018-09-03T02:46:01.026Z,100120.00
2018-09-03T02:48:30.921Z,100121.00
2018-09-03T02:51:02.240Z,100119.00
2018-09-03T02:53:33.061Z,100103.00
2018-09-03T02:56:06.170Z,100094.00
2018-09-03T02:58:37.465Z,100095.00
2018-09-03T03:01:06.791Z,100102.00
2018-09-03T03:03:36.145Z,100104.00
2018-09-03T03:06:05.982Z,100103.00
2018-09-03T03:08:38.197Z,100115.00
2018-09-03T03:11:07.534Z,100119.00
2018-09-03T03:13:39.825Z,100106.00
2018-09-03T03:16:08.977Z,100103.00
2018-09-03T03:18:38.376Z,100096.00
2018-09-03T03:21:07.425Z,100091.00
2018-09-03T03:26:19.898Z,100093.00
2018-09-03T03:28:48.926Z,100085.00
2018-09-03T03:31:18.033Z,100085.00
2018-09-03T03:33:47.048Z,100085.00
2018-09-03T03:36:16.499Z,100086.00
2018-09-03T03:38:46.316Z,100082.00
2018-09-03T03:41:15.686Z,100082.00
2018-09-03T03:43:48.705Z,100083.00
2018-09-03T03:46:17.788Z,100088.00
2018-09-03T03:48:46.895Z,100083.00
2018-09-03T03:51:16.280Z,100077.00
2018-09-03T03:53:45.407Z,100074.00
2018-09-03T03:56:14.589Z,100072.00
2018-09-03T03:58:44.189Z,100068.00
2018-09-03T04:01:13.331Z,100069.00
2018-09-03T04:03:42.512Z,100068.00
2018-09-03T04:06:11.779Z,100063.00
2018-09-03T04:08:40.902Z,100063.00
2018-09-03T04:11:09.990Z,100059.00
2018-09-03T04:13:39.537Z,100057.00
2018-09-03T04:16:08.687Z,100056.00
2018-09-03T04:18:37.797Z,100057.00
2018-09-03T04:21:06.876Z,100057.00
2018-09-03T04:23:36.248Z,100050.00
2018-09-03T04:26:05.349Z,100050.00
2018-09-03T04:28:34.470Z,100052.00
2018-09-03T04:31:03.649Z,100054.00
2018-09-03T04:33:32.721Z,100054.00
2018-09-03T04:36:02.220Z,100047.00
2018-09-03T04:38:31.440Z,100049.00
2018-09-03T04:41:00.556Z,100058.00
2018-09-03T04:43:29.775Z,100061.00
2018-09-03T04:45:58.854Z,100058.00
2018-09-03T04:48:27.998Z,100053.00
2018-09-03T04:50:57.088Z,100056.00
2018-09-03T04:53:26.342Z,100044.00
2018-09-03T04:55:55.455Z,100043.00
2018-09-03T04:58:24.861Z,100042.00
2018-09-03T05:00:55.277Z,100041.00
2018-09-03T05:03:24.459Z,100039.00
2018-09-03T05:05:53.653Z,100039.00
2018-09-03T05:08:23.005Z,100045.00
2018-09-03T05:10:52.125Z,100046.00
2018-09-03T05:13:21.242Z,100048.00
2018-09-03T05:15:51.025Z,100049.00
2018-09-03T05:18:20.229Z,100042.00
2018-09-03T05:20:49.558Z,100047.00
2018-09-03T05:23:19.169Z,100042.00
2018-09-03T05:25:48.353Z,100039.00
2018-09-03T05:28:17.572Z,100045.00
2018-09-03T05:30:46.660Z,100047.00
2018-09-03T05:33:15.869Z,100045.00
2018-09-03T05:35:45.177Z,100050.00
2018-09-03T05:38:14.298Z,100058.00
2018-09-03T05:40:43.551Z,100058.00
2018-09-03T05:43:12.872Z,100053.00
2018-09-03T05:45:42.046Z,100052.00
2018-09-03T05:48:11.379Z,100051.00
2018-09-03T05:50:40.654Z,100062.00
2018-09-03T05:53:09.648Z,100058.00
2018-09-03T05:55:38.765Z,100062.00
2018-09-03T05:58:08.064Z,100057.00
2018-09-03T06:00:37.167Z,100045.00
2018-09-03T06:03:06.929Z,100048.00
2018-09-03T06:05:36.244Z,100042.00
2018-09-03T06:08:06.430Z,100038.00
2018-09-03T06:10:35.669Z,100037.00
2018-09-03T06:13:04.824Z,100043.00
2018-09-03T06:15:33.989Z,100042.00
2018-09-03T06:18:03.809Z,100038.00
2018-09-03T06:20:33.302Z,100032.00
2018-09-03T06:23:02.473Z,100037.00
2018-09-03T06:25:31.753Z,100036.00
2018-09-03T06:28:00.822Z,100034.00
2018-09-03T06:30:29.925Z,100035.00
2018-09-03T06:32:59.091Z,100036.00
2018-09-03T06:35:28.129Z,100036.00
2018-09-03T06:37:57.297Z,100038.00
2018-09-03T06:40:26.521Z,100036.00
2018-09-03T06:42:55.615Z,100034.00
2018-09-03T06:45:24.745Z,100036.00
2018-09-03T06:47:53.855Z,100033.00
2018-09-03T06:50:22.974Z,100033.00
2018-09-03T06:52:52.784Z,100032.00
2018-09-03T06:55:21.949Z,100029.00
2018-09-03T06:57:51.184Z,100026.00
2018-09-03T07:00:20.282Z,100022.00
2018-09-03T07:02:49.361Z,100016.00
2018-09-03T07:05:18.591Z,100025.00
2018-09-03T07:07:47.789Z,100019.00
2018-09-03T07:10:16.861Z,100025.00
2018-09-03T07:12:46.033Z,100031.00
2018-09-03T07:15:16.165Z,100025.00
2018-09-03T07:17:45.370Z,100032.00
2018-09-03T07:20:14.542Z,100034.00
2018-09-03T07:22:43.738Z,100035.00
2018-09-03T07:25:12.968Z,100026.00
2018-09-03T07:27:43.183Z,100027.00
2018-09-03T07:30:13.446Z,100027.00
2018-09-03T07:32:42.588Z,100023.00
2018-09-03T07:35:11.851Z,100022.00
2018-09-03T07:37:41.094Z,100024.00
2018-09-03T07:40:10.328Z,100028.00
2018-09-03T07:42:39.617Z,100028.00
2018-09-03T07:45:08.793Z,100027.00
2018-09-03T07:47:38.107Z,100029.00
2018-09-03T07:50:07.717Z,100025.00
2018-09-03T07:52:36.932Z,100027.00
2018-09-03T07:55:06.208Z,100023.00
2018-09-03T07:57:35.324Z,100021.00
2018-09-03T08:00:04.717Z,100020.00
2018-09-03T08:02:33.976Z,100014.00
2018-09-03T08:05:03.888Z,100025.00
2018-09-03T08:07:33.001Z,100028.00
2018-09-03T08:10:02.152Z,100023.00
2018-09-03T08:12:31.213Z,100015.00
2018-09-03T08:15:00.306Z,100014.00
2018-09-03T08:17:29.467Z,100017.00
2018-09-03T08:19:58.625Z,100015.00
2018-09-03T08:22:28.553Z,100020.00
2018-09-03T08:24:57.758Z,100014.00
2018-09-03T08:27:26.941Z,100018.00
2018-09-03T08:29:56.061Z,100022.00
2018-09-03T08:32:25.176Z,100027.00
2018-09-03T08:34:54.328Z,100030.00
2018-09-03T08:37:23.440Z,100024.00
2018-09-03T08:39:52.585Z,100025.00
2018-09-03T08:42:21.655Z,100023.00
2018-09-03T08:44:50.907Z,100022.00
2018-09-03T08:47:20.432Z,100017.00
2018-09-03T08:49:49.557Z,100009.00
2018-09-03T08:52:18.678Z,100005.00
2018-09-03T08:54:47.799Z,100001.00
2018-09-03T08:57:16.949Z,100002.00
2018-09-03T08:59:46.192Z,100006.00
2018-09-03T09:02:15.292Z,100006.00
2018-09-03T09:04:44.520Z,100009.00
2018-09-03T09:07:13.808Z,100011.00
2018-09-03T09:09:43.649Z,100012.00
2018-09-03T09:12:12.876Z,100015.00
2018-09-03T09:14:42.117Z,100013.00
2018-09-03T09:17:11.307Z,100013.00
2018-09-03T09:19:40.474Z,100014.00
2018-09-03T09:22:09.618Z,100014.00
2018-09-03T09:24:39.594Z,100018.00
2018-09-03T09:27:08.771Z,100021.00
2018-09-03T09:29:37.990Z,100017.00
2018-09-03T09:32:07.155Z,100018.00
2018-09-03T09:34:36.288Z,100020.00
2018-09-03T09:37:05.606Z,100017.00
2018-09-03T09:39:34.751Z,100018.00
2018-09-03T09:42:03.851Z,100011.00
2018-09-03T09:44:33.077Z,100011.00
2018-09-03T09:47:02.407Z,100016.00
2018-09-03T09:49:31.690Z,100010.00
2018-09-03T09:52:00.846Z,100007.00
2018-09-03T09:54:29.993Z,99996.00
2018-09-03T09:56:59.502Z,99998.00
2018-09-03T09:59:28.721Z,99994.00
2018-09-03T10:01:57.863Z,99995.00
2018-09-03T10:04:27.195Z,99990.00
2018-09-03T10:06:56.323Z,99991.00
2018-09-03T10:09:25.495Z,99991.00
2018-09-03T10:11:54.723Z,99979.00
2018-09-03T10:14:23.925Z,99979.00
2018-09-03T10:16:53.089Z,99973.00
2018-09-03T10:19:22.305Z,99969.00
2018-09-03T10:21:51.503Z,99967.00
2018-09-03T10:24:20.757Z,99964.00
2018-09-03T10:26:50.154Z,99953.00
2018-09-03T10:29:19.336Z,99955.00
2018-09-03T10:31:48.796Z,99957.00
2018-09-03T10:34:18.140Z,99961.00
2018-09-03T10:36:47.288Z,99961.00
2018-09-03T10:39:16.497Z,99968.00
2018-09-03T10:41:45.776Z,99950.00
2018-09-03T10:44:15.042Z,99957.00
2018-09-03T10:46:44.319Z,99955.00
2018-09-03T10:49:13.647Z,99952.00
2018-09-03T10:51:44.104Z,99951.00
2018-09-03T10:54:13.506Z,99948.00
2018-09-03T10:56:42.753Z,99953.00
2018-09-03T10:59:12.126Z,99951.00
2018-09-03T11:01:41.417Z,99953.00
2018-09-03T11:04:11.303Z,99956.00
2018-09-03T11:06:40.569Z,99953.00
2018-09-03T11:09:10.963Z,99953.00
2018-09-03T11:11:40.937Z,99954.00
2018-09-03T11:14:10.201Z,99951.00
2018-09-03T11:16:39.422Z,99945.00
2018-09-03T11:19:08.600Z,99944.00
2018-09-03T11:21:39.072Z,99931.00
2018-09-03T11:24:08.130Z,99927.00
2018-09-03T11:26:37.365Z,99925.00
2018-09-03T11:29:06.625Z,99933.00
2018-09-03T11:31:35.767Z,99925.00
2018-09-03T11:34:04.864Z,99926.00
2018-09-03T11:36:34.024Z,99920.00
2018-09-03T11:39:03.154Z,99916.00
2018-09-03T11:41:32.259Z,99918.00
2018-09-03T11:44:01.417Z,99899.00
2018-09-03T11:46:30.636Z,99902.00
2018-09-03T11:48:59.717Z,99909.00
2018-09-03T11:51:28.855Z,99911.00
2018-09-03T11:53:58.093Z,99906.00
2018-09-03T11:56:28.034Z,99907.00
2018-09-03T11:58:57.104Z,99906.00
2018-09-03T12:01:26.233Z,99906.00
2018-09-03T12:03:55.455Z,99902.00
2018-09-03T12:06:24.593Z,99902.00
2018-09-03T12:08:53.768Z,99902.00
2018-09-03T12:11:22.864Z,99908.00
2018-09-03T12:13:52.052Z,99903.00
2018-09-03T12:16:24.820Z,99904.00
2018-09-03T12:18:56.956Z,99907.00
2018-09-03T12:21:26.087Z,99910.00
2018-09-03T12:23:55.364Z,99901.00
2018-09-03T12:26:24.537Z,99904.00
2018-09-03T12:28:53.690Z,99899.00
2018-09-03T12:31:22.932Z,99900.00
2018-09-03T12:33:52.166Z,99897.00
2018-09-03T12:36:21.807Z,99894.00
2018-09-03T12:38:51.068Z,99897.00
2018-09-03T12:41:20.117Z,99900.00
2018-09-03T12:43:49.279Z,99900.00
2018-09-03T12:46:18.515Z,99898.00
2018-09-03T12:48:47.588Z,99900.00
2018-09-03T12:51:16.823Z,99902.00
2018-09-03T12:53:46.050Z,99902.00
2018-09-03T12:56:15.241Z,99905.00
2018-09-03T12:58:44.396Z,99901.00
2018-09-03T13:01:13.691Z,99900.00
2018-09-03T13:03:42.941Z,99904.00
2018-09-03T13:06:12.286Z,99898.00
2018-09-03T13:08:41.525Z,99898.00
2018-09-03T13:11:10.728Z,99901.00
2018-09-03T13:13:40.003Z,99896.00
2018-09-03T13:16:09.326Z,99896.00
2018-09-03T13:18:39.080Z,99896.00
2018-09-03T13:21:08.670Z,99898.00
2018-09-03T13:23:37.778Z,99898.00
2018-09-03T13:26:07.069Z,99899.00
2018-09-03T13:28:36.183Z,99891.00
2018-09-03T13:31:05.368Z,99894.00
2018-09-03T13:33:34.581Z,99893.00
2018-09-03T13:36:03.867Z,99897.00
2018-09-03T13:38:32.968Z,99892.00
2018-09-03T13:41:02.481Z,99893.00
2018-09-03T13:43:32.757Z,99890.00
2018-09-03T13:46:01.940Z,99895.00
2018-09-03T13:48:30.998Z,99889.00
2018-09-03T13:51:00.161Z,99884.00
2018-09-03T13:53:29.328Z,99883.00
2018-09-03T13:55:59.191Z,99888.00
2018-09-03T13:58:29.465Z,99883.00
2018-09-03T14:00:59.911Z,99886.00
2018-09-03T14:03:31.084Z,99884.00
2018-09-03T14:06:02.902Z,99884.00
2018-09-03T14:08:32.641Z,99881.00
2018-09-03T14:11:04.005Z,99882.00
2018-09-03T14:13:34.807Z,99885.00
2018-09-03T14:16:05.103Z,99879.00
2018-09-03T14:18:35.259Z,99877.00
2018-09-03T14:21:07.291Z,99876.00
2018-09-03T14:23:36.737Z,99879.00
2018-09-03T14:26:06.700Z,99874.00
2018-09-03T14:28:40.444Z,99872.00
2018-09-03T14:31:11.014Z,99874.00
2018-09-03T14:33:40.934Z,99871.00
2018-09-03T14:36:10.634Z,99883.00
2018-09-03T14:38:41.590Z,99884.00
2018-09-03T14:41:11.617Z,99880.00
2018-09-03T14:43:42.940Z,99881.00
2018-09-03T14:46:12.541Z,99880.00
2018-09-03T14:48:42.972Z,99879.00
2018-09-03T14:51:13.599Z,99879.00
2018-09-03T14:53:43.472Z,99874.00
2018-09-03T14:56:13.891Z,99875.00
2018-09-03T14:58:44.666Z,99873.00
2018-09-03T15:01:14.689Z,99880.00
2018-09-03T15:03:44.965Z,99879.00
2018-09-03T15:06:15.800Z,99879.00
2018-09-03T15:08:46.645Z,99880.00
2018-09-03T15:11:17.428Z,99876.00
2018-09-03T15:13:50.719Z,99875.00
2018-09-03T15:16:20.348Z,99874.00
2018-09-03T15:18:51.870Z,99880.00
2018-09-03T15:21:23.080Z,99874.00
2018-09-03T15:23:52.704Z,99870.00
2018-09-03T15:26:23.650Z,99866.00
2018-09-03T15:28:53.262Z,99868.00
2018-09-03T15:31:23.090Z,99867.00
2018-09-03T15:33:52.431Z,99868.00
2018-09-03T15:36:25.258Z,99863.00
2018-09-03T15:38:54.453Z,99862.00
2018-09-03T15:41:23.567Z,99862.00
2018-09-03T15:43:55.891Z,99863.00
2018-09-03T15:46:26.376Z,99865.00
2018-09-03T15:48:58.219Z,99862.00
2018-09-03T15:51:28.277Z,99863.00
2018-09-03T15:53:58.649Z,99859.00
2018-09-03T15:56:29.883Z,99860.00
2018-09-03T15:58:59.570Z,99861.00
2018-09-03T16:01:30.709Z,99863.00
2018-09-03T16:04:02.033Z,99864.00
2018-09-03T16:06:35.200Z,99869.00
2018-09-03T16:09:14.431Z,99866.00
2018-09-03T16:11:44.173Z,99868.00
2018-09-03T16:14:13.261Z,99866.00
2018-09-03T16:16:44.847Z,99860.00
2018-09-03T16:19:19.551Z,99857.00
2018-09-03T16:21:55.217Z,99855.00
2018-09-03T16:24:27.266Z,99862.00
2018-09-03T16:26:56.816Z,99863.00
2018-09-03T16:29:28.586Z,99858.00
2018-09-03T16:31:59.752Z,99855.00
2018-09-03T16:34:29.796Z,99854.00
2018-09-03T16:36:59.174Z,99852.00
2018-09-03T16:39:29.101Z,99855.00
2018-09-03T16:41:58.740Z,99850.00
2018-09-03T16:44:27.986Z,99854.00
2018-09-03T16:46:59.114Z,99854.00
2018-09-03T16:49:31.073Z,99860.00
2018-09-03T16:52:01.098Z,99857.00
2018-09-03T16:54:30.931Z,99860.00
2018-09-03T16:57:02.721Z,99862.00
2018-09-03T16:59:33.152Z,99858.00
2018-09-03T17:02:02.642Z,99861.00
2018-09-03T17:04:32.827Z,99857.00
2018-09-03T17:07:02.613Z,99863.00
2018-09-03T17:09:32.108Z,99859.00
2018-09-03T17:12:03.571Z,99854.00
2018-09-03T17:14:33.547Z,99855.00
2018-09-03T17:17:06.441Z,99859.00
2018-09-03T17:19:36.327Z,99854.00
2018-09-03T17:22:08.290Z,99855.00
2018-09-03T17:24:39.829Z,99854.00
2018-09-03T17:27:11.578Z,99856.00
2018-09-03T17:29:49.847Z,99857.00
2018-09-03T17:32:20.256Z,99859.00
2018-09-03T17:35:01.540Z,99854.00
2018-09-03T17:37:34.793Z,99867.00
2018-09-03T17:40:04.140Z,99866.00
2018-09-03T17:42:37.793Z,99865.00
2018-09-03T17:45:09.693Z,99855.00
2018-09-03T17:47:43.907Z,99866.00
2018-09-03T17:50:20.187Z,99867.00
2018-09-03T17:52:50.713Z,99867.00
2018-09-03T17:55:24.848Z,99870.00
2018-09-03T18:00:30.346Z,99866.00
2018-09-03T18:03:00.091Z,99861.00
2018-09-03T18:05:30.989Z,99855.00
2018-09-03T18:08:03.423Z,99856.00
2018-09-03T18:10:38.104Z,99854.00
2018-09-03T18:13:07.208Z,99855.00
2018-09-03T18:15:37.172Z,99854.00
2018-09-03T18:18:07.013Z,99853.00
2018-09-03T18:20:36.671Z,99854.00
2018-09-03T18:23:06.138Z,99853.00
2018-09-03T18:25:36.022Z,99855.00
2018-09-03T18:28:05.385Z,99854.00
2018-09-03T18:30:34.437Z,99860.00
2018-09-03T18:33:05.492Z,99864.00
2018-09-03T18:35:34.608Z,99860.00
2018-09-03T18:38:03.705Z,99859.00
2018-09-03T18:40:32.761Z,99859.00
2018-09-03T18:43:03.150Z,99858.00
2018-09-03T18:45:32.897Z,99865.00
2018-09-03T18:48:02.463Z,99864.00
2018-09-03T18:50:33.268Z,99865.00
2018-09-03T18:53:03.069Z,99869.00
2018-09-03T18:55:34.025Z,99865.00
2018-09-03T18:58:03.048Z,99870.00
2018-09-03T19:00:32.244Z,99866.00
2018-09-03T19:03:01.345Z,99868.00
2018-09-03T19:05:31.137Z,99875.00
2018-09-03T19:08:07.073Z,99870.00
2018-09-03T19:10:36.129Z,99869.00
2018-09-03T19:13:05.354Z,99870.00
2018-09-03T19:15:34.453Z,99872.00
2018-09-03T19:18:03.496Z,99871.00
2018-09-03T19:20:32.581Z,99874.00
2018-09-03T19:23:01.762Z,99871.00
2018-09-03T19:25:31.117Z,99873.00
2018-09-03T19:28:00.282Z,99881.00
2018-09-03T19:30:30.336Z,99879.00
2018-09-03T19:32:59.558Z,99877.00
2018-09-03T19:35:29.513Z,99878.00
2018-09-03T19:37:58.873Z,99874.00
2018-09-03T19:40:28.396Z,99871.00
2018-09-03T19:42:57.605Z,99870.00
2018-09-03T19:45:27.431Z,99871.00
2018-09-03T19:47:57.437Z,99867.00
2018-09-03T19:50:26.892Z,99870.00
2018-09-03T19:52:56.297Z,99870.00
2018-09-03T19:55:25.455Z,99865.00
2018-09-03T19:57:54.832Z,99866.00
2018-09-03T20:00:24.016Z,99860.00
2018-09-03T20:03:11.798Z,99863.00
2018-09-03T20:05:41.522Z,99861.00
2018-09-03T20:08:11.625Z,99863.00
2018-09-03T20:10:41.284Z,99865.00
2018-09-03T20:13:10.989Z,99863.00
2018-09-03T20:15:40.825Z,99860.00
2018-09-03T20:18:13.066Z,99866.00
2018-09-03T20:20:42.221Z,99866.00
2018-09-03T20:23:12.444Z,99867.00
2018-09-03T20:25:41.499Z,99870.00
2018-09-03T20:28:12.213Z,99865.00
2018-09-03T20:30:41.841Z,99865.00
2018-09-03T20:33:11.112Z,99859.00
2018-09-03T20:35:40.183Z,99858.00
2018-09-03T20:38:09.313Z,99867.00
2018-09-03T20:40:38.375Z,99864.00
2018-09-03T20:43:07.514Z,99865.00
2018-09-03T20:45:37.072Z,99863.00
2018-09-03T20:48:06.284Z,99861.00
2018-09-03T20:50:35.375Z,99862.00
2018-09-03T20:53:04.659Z,99860.00
2018-09-03T20:55:34.272Z,99857.00
2018-09-03T20:58:03.348Z,99858.00
2018-09-03T21:00:32.469Z,99859.00
2018-09-03T21:03:01.607Z,99855.00
2018-09-03T21:05:31.730Z,99853.00
2018-09-03T21:08:00.956Z,99861.00
2018-09-03T21:10:30.112Z,99857.00
2018-09-03T21:12:59.285Z,99854.00
2018-09-03T21:20:25.829Z,99846.00
2018-09-03T21:22:54.939Z,99848.00
2018-09-03T21:25:24.076Z,99843.00
2018-09-03T21:27:53.116Z,99843.00
2018-09-03T21:30:22.220Z,99846.00
2018-09-03T21:32:51.801Z,99847.00
2018-09-03T21:35:20.945Z,99845.00
2018-09-03T21:37:50.225Z,99845.00
2018-09-03T21:40:20.240Z,99852.00
2018-09-03T21:42:49.272Z,99848.00
2018-09-03T21:45:18.356Z,99845.00
2018-09-03T21:47:47.576Z,99840.00
2018-09-03T21:50:16.714Z,99845.00
2018-09-03T21:52:45.772Z,99841.00
2018-09-03T21:55:14.896Z,99842.00
2018-09-03T21:57:50.594Z,99842.00
2018-09-03T22:00:19.758Z,99844.00
2018-09-03T22:02:50.006Z,99844.00
2018-09-03T22:05:20.485Z,99843.00
2018-09-03T22:07:49.603Z,99839.00
2018-09-03T22:10:18.748Z,99838.00
2018-09-03T22:12:48.362Z,99838.00
2018-09-03T22:15:17.852Z,99837.00
2018-09-03T22:17:50.093Z,99838.00
2018-09-03T22:20:19.274Z,99841.00
2018-09-03T22:22:48.401Z,99835.00
2018-09-03T22:25:19.986Z,99839.00
2018-09-03T22:27:49.132Z,99839.00
2018-09-03T22:30:18.283Z,99853.00
2018-09-03T22:32:47.525Z,99847.00
2018-09-03T22:35:16.689Z,99846.00
2018-09-03T22:37:46.002Z,99847.00
2018-09-03T22:40:15.250Z,99851.00
2018-09-03T22:42:44.678Z,99851.00
2018-09-03T22:45:13.876Z,99857.00
2018-09-03T22:47:43.118Z,99857.00
2018-09-03T22:50:12.410Z,99854.00
2018-09-03T22:52:41.604Z,99854.00
2018-09-03T22:55:10.769Z,99854.00
2018-09-03T22:57:40.010Z,99852.00
2018-09-03T23:00:09.259Z,99851.00
2018-09-03T23:02:46.077Z,99849.00
2018-09-03T23:05:16.768Z,99845.00
2018-09-03T23:07:53.481Z,99842.00
2018-09-03T23:10:22.692Z,99841.00
2018-09-03T23:12:51.869Z,99845.00
2018-09-03T23:15:21.042Z,99843.00
2018-09-03T23:17:50.179Z,99843.00
2018-09-03T23:20:19.327Z,99840.00
2018-09-03T23:22:48.400Z,99840.00
2018-09-03T23:25:17.524Z,99838.00
2018-09-03T23:27:46.747Z,99840.00
2018-09-03T23:30:16.197Z,99841.00
2018-09-03T23:32:45.268Z,99838.00
2018-09-03T23:35:14.502Z,99833.00
2018-09-03T23:37:43.610Z,99832.00
2018-09-03T23:40:13.561Z,99836.00
2018-09-03T23:42:43.669Z,99833.00
2018-09-03T23:45:12.799Z,99832.00
2018-09-03T23:47:41.920Z,99830.00
2018-09-03T23:50:11.708Z,99833.00
2018-09-03T23:52:40.804Z,99831.00
2018-09-03T23:55:09.946Z,99822.00
2018-09-03T23:57:39.141Z,99823.00
